Time;durP1;ratioP1;P1;durP2;ratioP2;P2;SDS_P1;SDS_P2;PMS_P1;PMS_P2;Temp;Humidity;BMP_temperature;BMP_pressure;BME280_temperature;BME280_humidity;BME280_pressure;Samples;Min_cycle;Max_cycle;Signal;HPM_P1;HPM_P2
2021/03/06 00:01:49;;;;;;;37.20;18.02;;;;;;;3.35;66.56;100764.95;1804382;79;21167;-64
2021/03/06 00:04:22;;;;;;;32.17;17.70;;;;;;;3.27;66.65;100769.20;1806223;79;21174;-64
2021/03/06 00:06:55;;;;;;;33.20;17.60;;;;;;;3.20;66.99;100765.26;1804595;79;21206;-64
2021/03/06 00:09:28;;;;;;;33.27;16.27;;;;;;;3.18;67.35;100767.54;1806346;79;21175;-64
2021/03/06 00:12:02;;;;;;;;;;;;;;;3.19;67.59;100773.11;1806917;79;21702;-65
2021/03/06 00:14:34;;;;;;;32.80;15.43;;;;;;;3.22;67.65;100780.72;1806024;79;20630;-64
2021/03/06 00:17:07;;;;;;;37.33;17.50;;;;;;;3.22;67.77;100790.63;1804699;79;21151;-64
2021/03/06 00:19:41;;;;;;;42.83;19.50;;;;;;;3.25;67.80;100796.91;1778745;79;21179;-65
2021/03/06 00:22:14;;;;;;;45.23;20.75;;;;;;;3.27;67.81;100789.91;1794734;80;21278;-65
2021/03/06 00:24:47;;;;;;;39.33;18.93;;;;;;;3.26;67.78;100786.96;1789267;80;21132;-65
2021/03/06 00:27:20;;;;;;;33.55;17.02;;;;;;;3.28;67.87;100786.88;1787606;80;21556;-65
2021/03/06 00:29:53;;;;;;;34.67;16.73;;;;;;;3.28;67.85;100786.42;1789042;80;21176;-65
2021/03/06 00:32:26;;;;;;;33.10;17.30;;;;;;;3.30;67.89;100787.62;1787563;80;21275;-65
2021/03/06 00:34:59;;;;;;;30.62;15.48;;;;;;;3.31;67.90;100795.33;1789131;80;21175;-64
2021/03/06 00:37:32;;;;;;;29.10;14.13;;;;;;;3.31;67.84;100789.31;1787587;80;21282;-64
2021/03/06 00:40:07;;;;;;;26.62;13.30;;;;;;;3.31;67.80;100792.75;1788804;80;21273;-64
2021/03/06 00:42:40;;;;;;;27.32;13.18;;;;;;;3.32;67.77;100794.84;1788559;80;21280;-65
2021/03/06 00:45:15;;;;;;;24.60;12.07;;;;;;;3.33;67.78;100789.62;1788929;80;21278;-64
2021/03/06 00:47:47;;;;;;;23.02;12.70;;;;;;;3.34;67.79;100783.51;1788938;80;21246;-64
2021/03/06 00:50:35;;;;;;;26.37;12.33;;;;;;;3.35;67.81;100789.08;1796671;80;21183;-65
2021/03/06 00:53:09;;;;;;;23.12;11.00;;;;;;;3.35;67.90;100780.02;1788067;80;22514;-64
2021/03/06 00:55:42;;;;;;;23.62;11.63;;;;;;;3.35;67.97;100791.66;1788876;80;21250;-65
2021/03/06 00:58:16;;;;;;;14.35;8.48;;;;;;;3.33;68.13;100777.97;1789064;80;21120;-64
2021/03/06 01:00:50;;;;;;;21.45;10.72;;;;;;;3.30;68.15;100774.23;1796847;80;21651;-65
2021/03/06 01:03:24;;;;;;;20.08;10.32;;;;;;;3.28;68.24;100772.19;1788803;80;21690;-65
2021/03/06 01:05:58;;;;;;;21.87;10.20;;;;;;;3.26;68.35;100776.61;1789204;80;21239;-65
2021/03/06 01:08:33;;;;;;;20.37;10.60;;;;;;;3.25;68.39;100769.75;1788948;80;21786;-66
2021/03/06 01:11:06;;;;;;;16.90;8.18;;;;;;;3.25;68.29;100766.31;1797129;80;21127;-67
2021/03/06 01:13:39;;;;;;;13.70;6.70;;;;;;;3.21;67.65;100758.34;1788473;80;21278;-66
2021/03/06 01:16:12;;;;;;;14.30;7.15;;;;;;;3.15;66.46;100755.59;1797399;80;21159;-66
2021/03/06 01:18:45;;;;;;;12.78;6.67;;;;;;;3.05;66.20;100751.82;1789097;80;21235;-67
2021/03/06 01:21:19;;;;;;;11.75;6.40;;;;;;;2.98;66.02;100746.57;1795370;80;21281;-66
2021/03/06 01:23:52;;;;;;;9.60;4.87;;;;;;;2.91;65.58;100746.95;1787233;80;21294;-67
2021/03/06 01:26:25;;;;;;;15.57;6.23;;;;;;;2.84;64.99;100740.41;1797399;80;21769;-67
2021/03/06 01:28:58;;;;;;;8.00;4.80;;;;;;;2.76;64.58;100738.19;1797217;80;21281;-66
2021/03/06 01:31:32;;;;;;;10.58;5.90;;;;;;;2.69;64.33;100735.08;1789033;80;21301;-65
2021/03/06 01:34:05;;;;;;;10.30;6.13;;;;;;;2.65;63.91;100737.41;1797070;80;21801;-67
2021/03/06 01:36:38;;;;;;;12.07;4.72;;;;;;;2.62;63.85;100735.45;1788922;80;21407;-67
2021/03/06 01:39:11;;;;;;;11.65;4.80;;;;;;;2.58;63.45;100724.88;1797548;80;21238;-66
2021/03/06 01:41:44;;;;;;;7.50;4.27;;;;;;;2.56;63.28;100729.27;1789720;79;21140;-66
2021/03/06 01:44:17;;;;;;;6.60;3.70;;;;;;;2.51;63.30;100737.69;1796872;80;21795;-67
2021/03/06 01:46:50;;;;;;;3.37;2.50;;;;;;;2.49;63.38;100739.52;1788808;80;21985;-67
2021/03/06 01:49:24;;;;;;;6.20;3.12;;;;;;;2.48;63.36;100737.86;1797183;80;21175;-66
2021/03/06 01:51:59;;;;;;;5.97;3.67;;;;;;;2.49;63.16;100749.41;1796876;80;21238;-64
2021/03/06 01:54:32;;;;;;;6.17;3.60;;;;;;;2.51;63.05;100749.31;1788259;80;21647;-65
2021/03/06 01:57:06;;;;;;;10.13;3.57;;;;;;;2.51;62.84;100754.48;1797310;80;21238;-63
2021/03/06 01:59:38;;;;;;;4.97;3.50;;;;;;;2.54;62.90;100753.91;1788529;80;21263;-66
2021/03/06 02:02:12;;;;;;;6.28;3.65;;;;;;;2.58;62.82;100759.77;1797022;80;21298;-65
2021/03/06 02:04:46;;;;;;;6.87;3.72;;;;;;;2.61;62.89;100755.73;1788841;80;21762;-64
2021/03/06 02:07:19;;;;;;;9.60;4.47;;;;;;;2.67;62.77;100747.69;1789067;80;21164;-64
2021/03/06 02:09:52;;;;;;;6.50;3.30;;;;;;;2.67;62.77;100747.69;1797293;80;21138;-66
2021/03/06 02:13:14;;;;;;;8.17;3.83;;;;;;;2.69;62.91;100748.45;1789122;79;21801;-64
2021/03/06 02:15:58;;;;;;;6.95;3.83;;;;;;;2.72;62.82;100752.19;1787065;80;21950;-64
2021/03/06 02:19:18;;;;;;;7.20;3.80;;;;;;;2.70;62.94;100754.83;1787893;80;21234;-64
2021/03/06 02:22:14;;;;;;;6.92;4.30;;;;;;;2.69;62.95;100754.47;1797274;80;21120;-64
2021/03/06 02:25:07;;;;;;;6.70;4.22;;;;;;;2.68;63.22;100745.47;1800635;79;21238;-64
2021/03/06 02:28:00;;;;;;;7.75;4.90;;;;;;;2.71;63.30;100741.45;1800086;80;21301;-64
2021/03/06 02:30:34;;;;;;;11.00;5.65;;;;;;;2.74;63.37;100743.90;1800278;80;21832;-64
2021/03/06 02:33:07;;;;;;;11.63;6.17;;;;;;;2.78;63.58;100751.87;1799922;80;21265;-65
2021/03/06 02:35:42;;;;;;;12.35;5.12;;;;;;;2.80;63.65;100756.96;1799611;80;21774;-64
2021/03/06 02:38:15;;;;;;;9.65;5.35;;;;;;;2.82;63.70;100756.45;1799751;80;21213;-65
2021/03/06 02:40:48;;;;;;;10.30;4.72;;;;;;;2.84;63.70;100757.22;1800484;80;21818;-64
2021/03/06 02:43:22;;;;;;;8.20;4.72;;;;;;;2.87;63.68;100762.21;1799886;80;21800;-64
2021/03/06 02:45:55;;;;;;;8.10;4.80;;;;;;;2.88;63.85;100755.69;1799527;80;21282;-64
2021/03/06 02:48:28;;;;;;;8.83;4.97;;;;;;;2.90;63.88;100762.91;1799821;80;21174;-65
2021/03/06 02:51:03;;;;;;;12.23;6.00;;;;;;;2.90;64.21;100760.77;1799250;80;21706;-65
2021/03/06 02:53:37;;;;;;;12.85;6.50;;;;;;;2.90;64.56;100765.95;1799589;80;21166;-65
2021/03/06 02:56:10;;;;;;;15.13;7.67;;;;;;;2.89;64.88;100766.88;1799508;80;21306;-64
2021/03/06 02:59:22;;;;;;;16.47;7.30;;;;;;;2.90;65.13;100768.53;1800093;80;21206;-64
2021/03/06 03:02:26;;;;;;;17.02;8.18;;;;;;;2.89;65.49;100765.11;1809794;79;21611;-65
2021/03/06 03:05:35;;;;;;;17.42;8.50;;;;;;;2.89;65.95;100765.59;1807045;79;21163;-64
2021/03/06 03:08:15;;;;;;;14.73;7.80;;;;;;;2.87;66.13;100763.05;1807095;79;21159;-64
2021/03/06 03:10:53;;;;;;;18.05;8.30;;;;;;;2.82;66.48;100761.14;1808281;79;21814;-64
2021/03/06 03:13:43;;;;;;;17.92;8.60;;;;;;;2.83;66.67;100771.04;1808645;79;21251;-64
2021/03/06 03:16:23;;;;;;;18.52;8.95;;;;;;;2.81;66.87;100762.08;1807093;79;21689;-65
2021/03/06 03:19:06;;;;;;;15.63;8.30;;;;;;;2.79;67.10;100760.03;1808651;79;21316;-64
2021/03/06 03:21:44;;;;;;;17.75;8.20;;;;;;;2.79;67.27;100763.91;1791293;79;21797;-64
2021/03/06 03:24:21;;;;;;;14.93;8.38;;;;;;;2.78;67.36;100763.96;1808269;79;21285;-65
2021/03/06 03:26:54;;;;;;;14.45;8.15;;;;;;;2.76;67.38;100759.33;1808535;79;21270;-64
2021/03/06 03:29:27;;;;;;;15.25;8.55;;;;;;;2.73;67.40;100753.84;1793667;79;21257;-65
2021/03/06 03:32:00;;;;;;;12.10;7.53;;;;;;;2.73;67.47;100755.98;1782373;79;21202;-66
2021/03/06 03:34:35;;;;;;;15.30;8.38;;;;;;;2.72;67.49;100744.44;1816140;79;21138;-64
2021/03/06 03:37:10;;;;;;;15.95;7.78;;;;;;;2.69;67.57;100744.12;1804850;79;21282;-65
2021/03/06 03:39:43;;;;;;;15.95;7.80;;;;;;;2.68;67.63;100741.59;1805238;79;21154;-65
2021/03/06 03:42:16;;;;;;;14.78;7.47;;;;;;;2.68;67.58;100745.47;1806389;79;21163;-65
2021/03/06 03:44:49;;;;;;;14.20;7.00;;;;;;;2.66;67.58;100736.96;1805577;79;21171;-64
2021/03/06 03:47:22;;;;;;;13.83;7.67;;;;;;;2.61;67.68;100733.31;1805242;79;21242;-65
2021/03/06 03:49:55;;;;;;;14.07;7.65;;;;;;;2.58;67.81;100732.64;1805417;79;22061;-64
2021/03/06 03:52:28;;;;;;;15.43;7.33;;;;;;;2.54;67.85;100733.22;1806352;79;21302;-65
2021/03/06 03:55:04;;;;;;;12.63;7.12;;;;;;;2.51;67.89;100731.23;1805202;79;21269;-64
2021/03/06 03:57:37;;;;;;;13.65;6.80;;;;;;;2.48;68.04;100736.56;1804986;79;21301;-64
2021/03/06 04:00:12;;;;;;;13.22;7.05;;;;;;;2.46;68.23;100743.08;1805525;79;21257;-64
2021/03/06 04:02:46;;;;;;;12.35;6.85;;;;;;;2.46;68.35;100746.95;1805929;79;21238;-64
2021/03/06 04:05:19;;;;;;;13.00;6.90;;;;;;;2.48;68.43;100750.33;1805218;79;21280;-64
2021/03/06 04:07:53;;;;;;;11.88;7.00;;;;;;;2.49;68.45;100744.68;1804940;79;21746;-64
2021/03/06 04:10:27;;;;;;;11.43;6.53;;;;;;;2.50;68.50;100747.66;1805478;79;21230;-64
2021/03/06 04:13:00;;;;;;;11.68;6.95;;;;;;;2.51;68.42;100757.07;1806100;79;21158;-64
2021/03/06 04:15:34;;;;;;;11.90;6.85;;;;;;;2.51;68.50;100757.91;1805444;79;21281;-64
2021/03/06 04:18:07;;;;;;;18.53;7.13;;;;;;;2.53;68.60;100754.80;1805127;79;21645;-64
2021/03/06 04:20:41;;;;;;;13.32;6.72;;;;;;;2.53;68.47;100756.09;1805409;79;21430;-64
2021/03/06 04:23:14;;;;;;;12.37;6.62;;;;;;;2.54;68.45;100755.19;1806017;79;21238;-65
2021/03/06 04:25:47;;;;;;;9.43;5.28;;;;;;;2.54;68.41;100755.64;1805449;79;21314;-64
2021/03/06 04:28:20;;;;;;;10.67;5.00;;;;;;;2.53;68.33;100761.26;1804865;79;21721;-64
2021/03/06 04:30:53;;;;;;;11.93;6.57;;;;;;;2.52;68.37;100764.77;1805432;79;21258;-65
2021/03/06 04:33:26;;;;;;;13.38;7.05;;;;;;;2.52;68.44;100766.52;1805734;79;21785;-65
2021/03/06 04:36:00;;;;;;;11.48;6.45;;;;;;;2.53;68.26;100781.94;1791768;79;21799;-64
2021/03/06 04:38:34;;;;;;;13.03;6.70;;;;;;;2.52;68.26;100779.44;1788717;80;21704;-64
2021/03/06 04:41:08;;;;;;;12.43;6.62;;;;;;;2.53;68.22;100773.38;1788999;80;21164;-65
2021/03/06 04:43:41;;;;;;;9.50;5.43;;;;;;;2.55;68.03;100778.84;1790565;80;21134;-65
2021/03/06 04:46:14;;;;;;;9.65;5.87;;;;;;;2.57;67.85;100777.47;1786072;80;21403;-66
2021/03/06 04:48:47;;;;;;;11.12;6.17;;;;;;;2.58;67.68;100780.45;1797411;80;21776;-65
2021/03/06 04:51:21;;;;;;;13.45;6.58;;;;;;;2.60;67.59;100778.63;1797820;80;21669;-65
2021/03/06 04:53:56;;;;;;;8.83;5.07;;;;;;;2.59;67.39;100779.08;1783606;80;21114;-66
2021/03/06 04:56:28;;;;;;;10.63;5.65;;;;;;;2.59;67.34;100775.20;1794194;80;21568;-66
2021/03/06 04:59:02;;;;;;;13.45;6.17;;;;;;;2.61;67.23;100773.38;1793010;80;21787;-66
2021/03/06 05:01:35;;;;;;;10.70;5.90;;;;;;;2.63;67.10;100770.70;1781485;80;21216;-66
2021/03/06 05:04:08;;;;;;;11.53;5.70;;;;;;;2.64;66.91;100778.41;1790586;80;21328;-66
2021/03/06 05:06:45;;;;;;;12.82;6.80;;;;;;;2.67;66.78;100785.98;1796937;79;21796;-66
2021/03/06 05:09:17;;;;;;;14.58;6.83;;;;;;;2.67;66.69;100784.70;1789650;80;21253;-66
2021/03/06 05:11:50;;;;;;;13.27;6.47;;;;;;;2.71;66.70;100797.03;1789774;80;21269;-66
2021/03/06 05:14:23;;;;;;;10.68;5.85;;;;;;;2.72;66.50;100802.13;1791252;80;21938;-66
2021/03/06 05:16:58;;;;;;;11.63;5.60;;;;;;;2.76;66.27;100805.86;1789032;80;21803;-66
2021/03/06 05:19:31;;;;;;;11.43;6.10;;;;;;;2.76;66.16;100809.73;1787524;80;21319;-66
2021/03/06 05:22:04;;;;;;;11.48;5.62;;;;;;;2.77;66.07;100812.72;1783590;79;21284;-67
2021/03/06 05:24:37;;;;;;;12.43;5.15;;;;;;;2.80;66.01;100825.03;1798046;79;21141;-67
2021/03/06 05:27:10;;;;;;;11.20;5.62;;;;;;;2.82;65.74;100828.38;1790111;80;21217;-67
2021/03/06 05:29:43;;;;;;;9.97;4.70;;;;;;;2.81;65.51;100828.46;1789190;80;21233;-67
2021/03/06 05:32:16;;;;;;;15.80;8.05;;;;;;;2.79;65.41;100840.18;1794257;80;21335;-67
2021/03/06 05:34:50;;;;;;;11.43;5.45;;;;;;;2.81;65.40;100842.23;1779225;81;21240;-68
2021/03/06 05:37:23;;;;;;;12.10;5.58;;;;;;;2.85;65.14;100846.34;1795407;79;21143;-68
2021/03/06 05:39:56;;;;;;;36.43;20.70;;;;;;;2.89;64.88;100853.03;1799022;80;21263;-69
2021/03/06 05:42:29;;;;;;;16.20;8.93;;;;;;;2.89;64.71;100842.69;1799355;80;21186;-68
2021/03/06 05:45:03;;;;;;;11.77;6.67;;;;;;;2.91;64.12;100854.27;1778671;80;21298;-67
2021/03/06 05:47:36;;;;;;;7.05;4.15;;;;;;;2.90;63.69;100855.16;1799269;80;21584;-67
2021/03/06 05:50:11;;;;;;;11.73;7.58;;;;;;;2.89;63.13;100850.44;1793801;78;21829;-67
2021/03/06 05:52:43;;;;;;;22.55;13.90;;;;;;;2.91;62.96;100852.52;1785299;80;21281;-67
2021/03/06 05:55:19;;;;;;;16.67;8.70;;;;;;;2.92;62.91;100852.89;1746791;79;21250;-67
2021/03/06 05:57:55;;;;;;;13.88;6.50;;;;;;;2.97;62.92;100856.55;1798467;80;21838;-67
2021/03/06 06:00:29;;;;;;;11.15;5.85;;;;;;;3.00;62.77;100859.00;1789908;78;21781;-65
2021/03/06 06:03:01;;;;;;;12.43;5.45;;;;;;;3.03;62.72;100867.46;1773466;78;21318;-67
2021/03/06 06:05:35;;;;;;;10.05;4.85;;;;;;;3.08;62.68;100867.23;1784356;78;21301;-66
2021/03/06 06:08:08;;;;;;;7.47;3.58;;;;;;;3.14;62.36;100869.06;1799348;80;21263;-66
2021/03/06 06:10:41;;;;;;;4.35;2.55;;;;;;;3.16;62.14;100875.45;1797239;78;21758;-66
2021/03/06 06:13:14;;;;;;;5.42;2.40;;;;;;;3.19;61.99;100877.44;1787997;80;21305;-67
2021/03/06 06:15:48;;;;;;;4.55;2.37;;;;;;;3.22;61.77;100885.06;1768612;81;21277;-66
2021/03/06 06:18:22;;;;;;;8.85;4.05;;;;;;;3.23;61.88;100885.42;1767504;81;21273;-67
2021/03/06 06:20:55;;;;;;;7.22;3.08;;;;;;;3.27;61.76;100884.35;1768947;81;21742;-66
2021/03/06 06:23:29;;;;;;;4.25;2.45;;;;;;;3.27;61.57;100886.13;1767610;81;21326;-66
2021/03/06 06:26:02;;;;;;;9.07;4.53;;;;;;;3.16;61.62;100895.69;1768771;80;21178;-66
2021/03/06 06:28:48;;;;;;;11.63;5.67;;;;;;;3.14;62.02;100896.23;1700309;78;21257;-67
2021/03/06 06:31:22;;;;;;;14.90;4.37;;;;;;;3.22;62.55;100888.09;1768651;80;21249;-66
2021/03/06 06:33:56;;;;;;;7.17;4.47;;;;;;;3.29;62.42;100891.61;1768983;78;21261;-66
2021/03/06 06:36:38;;;;;;;;;;;;;;;3.36;62.47;100894.73;1776292;79;21261;-67
2021/03/06 06:43:25;;;;;;;6.33;2.47;;;;;;;3.46;62.50;100900.30;1805935;78;21158;-64
2021/03/06 06:46:00;;;;;;;7.55;3.60;;;;;;;3.52;62.98;100900.82;1799778;78;21253;-66
2021/03/06 06:48:33;;;;;;;3.50;2.22;;;;;;;3.58;63.00;100897.10;1775357;79;21288;-64
2021/03/06 06:51:12;;;;;;;10.65;2.62;;;;;;;3.62;62.98;100903.34;1798584;78;21344;-64
2021/03/06 06:53:45;;;;;;;3.87;2.45;;;;;;;3.64;63.07;100894.19;1783798;78;21331;-64
2021/03/06 06:56:28;;;;;;;5.03;2.62;;;;;;;3.65;63.21;100897.17;1800747;78;21305;-64
2021/03/06 06:59:11;;;;;;;11.05;5.35;;;;;;;3.67;63.02;100894.05;1804400;78;21890;-64
2021/03/06 07:01:46;;;;;;;18.05;6.40;;;;;;;3.68;63.35;100893.14;1771403;78;21289;-68
2021/03/06 07:04:20;;;;;;;13.88;5.45;;;;;;;3.79;63.78;100894.73;1782704;79;21282;-66
2021/03/06 07:07:00;;;;;;;8.08;4.37;;;;;;;3.85;63.89;100896.98;1789763;78;21332;-64
2021/03/06 07:09:33;;;;;;;9.38;4.58;;;;;;;3.91;64.22;100892.36;1803293;78;21462;-66
2021/03/06 07:12:20;;;;;;;9.65;5.30;;;;;;;4.02;64.27;100893.08;1804020;79;21245;-64
2021/03/06 07:14:53;;;;;;;11.68;5.97;;;;;;;4.10;64.40;100885.77;1794376;78;21196;-67
2021/03/06 07:17:40;;;;;;;7.55;4.60;;;;;;;4.16;64.34;100882.84;1794611;79;21374;-66
2021/03/06 07:20:30;;;;;;;5.62;3.08;;;;;;;4.24;64.08;100879.39;1798454;78;21282;-66
2021/03/06 07:23:23;;;;;;;6.83;3.20;;;;;;;4.34;63.22;100872.81;1803727;78;21324;-69
2021/03/06 07:26:04;;;;;;;6.87;4.22;;;;;;;4.46;62.50;100857.05;1802587;78;21194;-65
2021/03/06 07:28:37;;;;;;;10.18;5.45;;;;;;;4.56;61.93;100851.76;1796247;78;21130;-65
2021/03/06 07:31:11;;;;;;;6.35;3.70;;;;;;;4.73;61.07;100847.30;1784630;77;21871;-65
2021/03/06 07:33:44;;;;;;;10.82;3.40;;;;;;;4.97;60.50;100841.20;1792615;78;21317;-66
2021/03/06 07:36:18;;;;;;;7.40;3.45;;;;;;;5.16;59.96;100839.23;1776733;78;21277;-67
2021/03/06 07:38:52;;;;;;;11.45;6.10;;;;;;;5.39;59.00;100845.72;1797028;77;21254;-66
2021/03/06 07:41:25;;;;;;;10.57;5.10;;;;;;;5.94;58.08;100845.92;1774554;78;21375;-66
2021/03/06 07:43:59;;;;;;;5.37;3.35;;;;;;;5.94;58.08;100845.92;1785692;78;21778;-66
2021/03/06 07:46:32;;;;;;;8.28;4.35;;;;;;;6.28;56.61;100846.82;1783977;78;21870;-68
2021/03/06 07:49:13;;;;;;;13.30;10.03;;;;;;;6.72;55.65;100838.39;1787913;80;21808;-69
2021/03/06 07:51:46;;;;;;;5.60;2.95;;;;;;;7.25;54.27;100839.30;1771784;80;21334;-69
2021/03/06 07:54:20;;;;;;;5.33;2.87;;;;;;;7.95;52.55;100834.10;1785529;78;21331;-69
2021/03/06 07:56:57;;;;;;;5.30;2.72;;;;;;;8.57;50.76;100827.94;1765346;80;21265;-67
2021/03/06 07:59:54;;;;;;;24.40;13.70;;;;;;;9.20;49.54;100826.82;1787221;78;21319;-68
2021/03/06 08:02:34;;;;;;;22.93;15.10;;;;;;;9.70;47.95;100820.41;1795236;78;21369;-68
2021/03/06 08:05:37;;;;;;;8.33;3.17;;;;;;;9.89;46.47;100825.44;1795923;80;21812;-66
2021/03/06 08:08:12;;;;;;;12.75;7.95;;;;;;;9.82;45.68;100827.33;1776972;79;21261;-65
2021/03/06 08:11:10;;;;;;;8.80;5.30;;;;;;;9.47;45.93;100831.31;1756485;80;22057;-67
2021/03/06 08:13:56;;;;;;;7.20;4.37;;;;;;;9.10;46.71;100832.39;1773258;79;21781;-69
2021/03/06 08:16:34;;;;;;;3.83;2.85;;;;;;;8.88;47.44;100833.12;1789225;78;21323;-67
2021/03/06 08:19:18;;;;;;;7.40;4.33;;;;;;;8.75;47.40;100837.08;1786141;80;21297;-68
2021/03/06 08:21:56;;;;;;;6.47;4.95;;;;;;;8.75;47.46;100839.69;1795774;80;21292;-68
2021/03/06 08:24:30;;;;;;;5.28;3.42;;;;;;;8.97;47.06;100832.91;1788206;78;21831;-67
2021/03/06 08:27:10;;;;;;;3.22;2.45;;;;;;;9.41;46.75;100835.20;1788475;80;21175;-68
2021/03/06 08:29:53;;;;;;;8.30;5.17;;;;;;;9.76;46.12;100827.80;1780480;78;21295;-71
2021/03/06 08:32:36;;;;;;;12.78;7.53;;;;;;;9.94;45.41;100836.84;1797710;78;21291;-69
2021/03/06 08:35:24;;;;;;;11.03;3.67;;;;;;;10.07;45.20;100833.66;1795323;78;21229;-68
2021/03/06 08:37:57;;;;;;;5.00;3.45;;;;;;;10.01;45.08;100842.80;1790195;78;21316;-66
2021/03/06 08:40:30;;;;;;;4.12;2.25;;;;;;;9.72;44.65;100841.57;1786951;78;21229;-67
2021/03/06 08:43:03;;;;;;;5.27;1.83;;;;;;;9.41;44.58;100848.27;1781112;78;21341;-68
2021/03/06 08:45:37;;;;;;;2.52;2.10;;;;;;;9.13;44.82;100843.89;1794431;78;21973;-68
2021/03/06 08:48:12;;;;;;;5.37;2.60;;;;;;;8.95;45.02;100833.03;1765728;79;21278;-67
2021/03/06 08:50:45;;;;;;;2.65;2.00;;;;;;;8.93;45.43;100838.00;1793940;77;21313;-68
2021/03/06 08:53:18;;;;;;;4.35;2.00;;;;;;;8.95;45.50;100832.19;1723025;82;21303;-69
2021/03/06 08:55:54;;;;;;;2.72;2.00;;;;;;;8.96;45.99;100828.62;1784831;78;21329;-69
2021/03/06 08:58:27;;;;;;;7.75;4.40;;;;;;;8.98;46.06;100823.64;1755290;80;21352;-68
2021/03/06 09:01:00;;;;;;;10.72;5.78;;;;;;;9.06;45.44;100820.48;1780330;78;21616;-70
2021/03/06 09:03:35;;;;;;;5.58;2.60;;;;;;;8.99;44.26;100825.80;1777350;79;21309;-67
2021/03/06 09:06:09;;;;;;;3.00;1.90;;;;;;;8.91;44.50;100825.04;1810600;78;21919;-67
2021/03/06 09:08:42;;;;;;;2.95;2.05;;;;;;;8.82;44.48;100830.94;1786938;80;21342;-65
2021/03/06 09:11:16;;;;;;;3.58;2.05;;;;;;;8.69;44.34;100839.30;1775871;79;21333;-64
2021/03/06 09:13:50;;;;;;;4.40;2.27;;;;;;;8.41;44.52;100850.00;1796658;78;21884;-68
2021/03/06 09:16:23;;;;;;;2.65;1.85;;;;;;;8.09;45.32;100843.11;1796522;78;21334;-69
2021/03/06 09:18:57;;;;;;;4.12;2.12;;;;;;;7.75;45.79;100841.97;1795607;79;21335;-68
2021/03/06 09:21:30;;;;;;;5.33;3.03;;;;;;;7.48;46.60;100834.23;1725382;82;21399;-68
2021/03/06 09:24:04;;;;;;;6.83;4.72;;;;;;;7.19;47.76;100843.13;1788287;78;21492;-68
2021/03/06 09:26:38;;;;;;;14.75;7.67;;;;;;;6.95;48.10;100839.50;1797229;78;21340;-64
2021/03/06 09:29:11;;;;;;;11.63;5.78;;;;;;;6.82;48.63;100841.70;1789017;80;21210;-68
2021/03/06 09:31:51;;;;;;;9.50;3.60;;;;;;;6.71;49.15;100831.99;1781421;78;21286;-68
2021/03/06 09:34:28;;;;;;;4.47;2.77;;;;;;;6.65;49.30;100840.17;1762541;79;21314;-68
2021/03/06 09:37:18;;;;;;;4.87;2.90;;;;;;;6.53;49.17;100840.94;1798054;78;21297;-69
2021/03/06 09:39:51;;;;;;;4.83;2.90;;;;;;;6.38;49.69;100847.93;1806864;78;21166;-66
2021/03/06 09:42:25;;;;;;;4.25;2.55;;;;;;;6.19;50.44;100851.75;1806787;78;21912;-67
2021/03/06 09:44:58;;;;;;;8.28;3.72;;;;;;;5.95;50.81;100845.82;1795136;77;21171;-67
2021/03/06 09:47:31;;;;;;;4.63;2.87;;;;;;;5.77;51.44;100851.25;1801069;77;21804;-66
2021/03/06 09:50:06;;;;;;;4.47;2.77;;;;;;;5.56;52.12;100836.48;1801000;77;21826;-68
2021/03/06 09:52:40;;;;;;;4.78;2.90;;;;;;;5.54;52.48;100843.50;1801207;77;21236;-68
2021/03/06 09:55:19;;;;;;;8.70;3.47;;;;;;;5.53;52.94;100841.84;1818168;78;21123;-71
2021/03/06 09:57:52;;;;;;;5.83;3.20;;;;;;;5.63;53.66;100839.55;1787863;79;21349;-69
2021/03/06 10:00:26;;;;;;;6.55;3.45;;;;;;;5.74;54.86;100830.64;1811798;77;21159;-69
2021/03/06 10:02:59;;;;;;;;;;;;;;;5.83;54.43;100827.48;1815936;78;21206;-68
2021/03/06 10:05:32;;;;;;;36.15;20.68;;;;;;;5.95;54.40;100834.58;1819270;77;20309;-69
2021/03/06 10:08:06;;;;;;;9.60;5.83;;;;;;;6.02;53.72;100841.92;1819850;78;21202;-68
2021/03/06 10:10:40;;;;;;;5.47;2.92;;;;;;;6.10;53.14;100831.06;1783733;79;21199;-64
2021/03/06 10:13:13;;;;;;;7.42;3.90;;;;;;;6.11;52.59;100830.95;1788145;79;21356;-66
2021/03/06 10:15:48;;;;;;;11.15;5.53;;;;;;;6.10;52.14;100827.16;1769663;80;21330;-66
2021/03/06 10:18:21;;;;;;;;;;;;;;;6.05;52.52;100824.84;1790689;80;21670;-66
2021/03/06 10:20:55;;;;;;;3.52;2.45;;;;;;;6.10;52.62;100827.16;1790134;79;20201;-61
2021/03/06 10:23:33;;;;;;;4.42;2.12;;;;;;;6.22;52.85;100827.71;1788144;79;21281;-63
2021/03/06 10:26:21;;;;;;;4.65;3.25;;;;;;;6.38;52.02;100825.83;1788496;79;22438;-66
2021/03/06 10:28:59;;;;;;;2.27;1.35;;;;;;;6.54;51.55;100823.11;1789518;79;21670;-67
2021/03/06 10:31:39;;;;;;;7.42;4.35;;;;;;;6.68;50.15;100828.28;1788324;79;21782;-64
2021/03/06 10:34:29;;;;;;;5.67;3.47;;;;;;;6.78;49.07;100821.56;1788791;79;21302;-65
2021/03/06 10:37:15;;;;;;;2.90;1.37;;;;;;;6.79;48.06;100823.21;1789255;79;21330;-65
2021/03/06 10:40:09;;;;;;;3.85;2.27;;;;;;;6.83;47.40;100827.28;1789005;79;21151;-68
2021/03/06 10:42:53;;;;;;;2.30;1.40;;;;;;;6.89;46.71;100819.55;1788830;80;21329;-68
2021/03/06 10:45:29;;;;;;;25.27;15.88;;;;;;;6.95;45.32;100812.66;1776959;79;21330;-67
2021/03/06 10:48:03;;;;;;;11.18;6.05;;;;;;;7.07;44.32;100817.89;1784340;80;21884;-65
2021/03/06 10:50:41;;;;;;;4.33;2.75;;;;;;;7.14;44.06;100815.73;1802574;78;21316;-69
2021/03/06 10:53:19;;;;;;;9.53;5.30;;;;;;;7.21;43.25;100815.20;1803218;78;21801;-69
2021/03/06 10:55:53;;;;;;;6.33;3.85;;;;;;;7.24;42.92;100816.31;1801971;78;22472;-67
2021/03/06 10:58:47;;;;;;;2.25;1.98;;;;;;;7.26;42.20;100815.74;1799159;78;21448;-69
2021/03/06 11:01:22;;;;;;;2.37;1.15;;;;;;;7.30;42.44;100817.69;1782436;77;21268;-71
2021/03/06 11:03:56;;;;;;;2.25;1.10;;;;;;;7.39;42.90;100817.08;1779205;78;21339;-69
2021/03/06 11:06:29;;;;;;;1.65;1.00;;;;;;;7.48;42.87;100810.78;1810010;78;21850;-71
2021/03/06 11:09:07;;;;;;;4.22;1.90;;;;;;;7.54;41.90;100805.64;1801117;79;21843;-68
2021/03/06 11:11:42;;;;;;;4.85;1.65;;;;;;;7.54;41.52;100803.03;1805190;77;21941;-69
2021/03/06 11:14:24;;;;;;;16.10;10.00;;;;;;;7.52;41.20;100799.70;1805488;78;21701;-68
2021/03/06 11:16:58;;;;;;;6.67;3.05;;;;;;;7.49;40.93;100797.30;1797881;78;21345;-67
2021/03/06 11:19:31;;;;;;;4.50;3.15;;;;;;;7.46;40.39;100797.48;1802339;78;21690;-69
2021/03/06 11:22:05;;;;;;;2.05;1.62;;;;;;;7.39;40.91;100794.47;1802887;78;21191;-70
2021/03/06 11:24:38;;;;;;;1.65;0.98;;;;;;;7.37;41.06;100799.42;1801178;78;21877;-69
2021/03/06 11:27:11;;;;;;;3.98;1.10;;;;;;;7.35;41.15;100796.92;1804345;78;21175;-67
2021/03/06 11:29:45;;;;;;;2.58;1.10;;;;;;;7.33;40.04;100794.05;1796206;78;21626;-70
2021/03/06 11:32:21;;;;;;;2.22;1.00;;;;;;;7.21;39.90;100793.08;1774768;78;21875;-70
2021/03/06 11:34:54;;;;;;;2.80;1.10;;;;;;;7.08;40.89;100790.09;1790538;78;21183;-71
2021/03/06 11:37:29;;;;;;;1.60;0.70;;;;;;;7.08;41.28;100790.93;1782666;79;21252;-70
2021/03/06 11:40:04;;;;;;;0.78;0.70;;;;;;;7.07;40.59;100784.53;1774711;79;21226;-72
2021/03/06 11:42:37;;;;;;;1.95;1.40;;;;;;;7.02;40.80;100784.81;1804438;78;21212;-70
2021/03/06 11:45:11;;;;;;;13.88;8.20;;;;;;;6.96;39.87;100774.81;1811731;78;21385;-70
2021/03/06 11:47:45;;;;;;;3.33;1.45;;;;;;;6.90;39.17;100782.20;1797804;79;21390;-70
2021/03/06 11:50:20;;;;;;;1.17;0.80;;;;;;;6.79;38.40;100778.97;1800132;79;21331;-70
2021/03/06 11:52:53;;;;;;;3.67;1.50;;;;;;;6.72;37.98;100776.41;1786306;79;21225;-70
2021/03/06 11:55:26;;;;;;;1.22;0.93;;;;;;;6.64;37.69;100776.89;1804681;79;21292;-70
2021/03/06 11:58:03;;;;;;;8.35;4.25;;;;;;;6.60;38.16;100777.19;1695014;83;21254;-69
2021/03/06 12:00:38;;;;;;;1.92;1.42;;;;;;;6.52;38.45;100784.17;1766833;80;21344;-68
2021/03/06 12:03:12;;;;;;;1.80;0.82;;;;;;;6.45;38.41;100783.39;1783697;79;21860;-70
2021/03/06 12:05:46;;;;;;;1.50;0.98;;;;;;;6.33;38.64;100790.66;1789608;79;21321;-68
2021/03/06 12:08:20;;;;;;;4.05;1.45;;;;;;;6.25;39.42;100794.19;1790839;79;21163;-69
2021/03/06 12:10:53;;;;;;;2.70;1.42;;;;;;;6.20;39.19;100790.58;1791666;79;21230;-67
2021/03/06 12:13:26;;;;;;;1.07;0.80;;;;;;;6.14;39.16;100791.43;1775488;79;21191;-67
2021/03/06 12:16:01;;;;;;;1.67;1.05;;;;;;;5.97;38.91;100794.58;1789593;79;21326;-65